Time;durP1;ratioP1;P1;durP2;ratioP2;P2;SDS_P1;SDS_P2;PMS_P1;PMS_P2;Temp;Humidity;BMP_temperature;BMP_pressure;BME280_temperature;BME280_humidity;BME280_pressure;Samples;Min_cycle;Max_cycle;Signal;HPM_P1;HPM_P2
2022/06/11 00:01:38;;;;;;;5.03;2.70;;;;;;;14.65;100.00;100676.34;5026574;28;20303;-62
2022/06/11 00:04:09;;;;;;;4.93;3.30;;;;;;;14.61;100.00;100673.09;5043738;28;20268;-62
2022/06/11 00:06:41;;;;;;;9.47;3.10;;;;;;;14.62;100.00;100671.31;5052998;28;20190;-62
2022/06/11 00:09:08;;;;;;;9.80;3.57;;;;;;;14.69;100.00;100677.81;5054504;28;20205;-63
2022/06/11 00:11:33;;;;;;;7.27;3.80;;;;;;;14.74;100.00;100675.75;5033389;28;20865;-62
2022/06/11 00:13:59;;;;;;;8.77;4.17;;;;;;;14.72;100.00;100679.38;5053585;28;20185;-61
2022/06/11 00:16:26;;;;;;;6.37;4.17;;;;;;;14.66;100.00;100683.16;5054212;28;20184;-60
2022/06/11 00:18:54;;;;;;;4.40;3.17;;;;;;;14.67;100.00;100669.31;5061925;28;20220;-61
2022/06/11 00:21:21;;;;;;;9.67;3.70;;;;;;;14.68;100.00;100673.56;5039684;28;20592;-61
2022/06/11 00:23:46;;;;;;;14.00;4.60;;;;;;;14.65;100.00;100674.59;5047019;28;20178;-61
2022/06/11 00:26:12;;;;;;;5.73;3.63;;;;;;;14.66;100.00;100670.22;5053534;28;20274;-63
2022/06/11 00:28:38;;;;;;;6.33;3.93;;;;;;;14.69;100.00;100668.28;5054090;28;20656;-62
2022/06/11 00:31:05;;;;;;;4.87;3.40;;;;;;;14.74;100.00;100669.75;5043467;28;20247;-61
2022/06/11 00:33:31;;;;;;;9.30;4.43;;;;;;;14.69;100.00;100667.44;5044737;28;20224;-60
2022/06/11 00:35:56;;;;;;;7.83;3.50;;;;;;;14.61;100.00;100665.31;5054026;28;20209;-68
2022/06/11 00:38:22;;;;;;;8.93;3.50;;;;;;;14.62;100.00;100663.56;5053934;28;20200;-65
2022/06/11 00:40:50;;;;;;;5.10;3.70;;;;;;;14.59;100.00;100667.16;5043254;28;20269;-62
2022/06/11 00:43:17;;;;;;;4.33;3.13;;;;;;;14.63;100.00;100665.22;5042855;28;20173;-61
2022/06/11 00:45:58;;;;;;;6.03;3.87;;;;;;;14.53;100.00;100677.91;5038534;28;20173;-63
2022/06/11 00:48:35;;;;;;;7.27;3.63;;;;;;;14.40;100.00;100669.22;5052328;28;20303;-61
2022/06/11 00:51:10;;;;;;;4.40;3.10;;;;;;;14.32;100.00;100670.53;5037446;28;20225;-62
2022/06/11 00:53:58;;;;;;;6.00;3.77;;;;;;;14.25;100.00;100668.41;5039248;28;20182;-61
2022/06/11 00:56:47;;;;;;;6.73;3.23;;;;;;;14.22;100.00;100666.03;5050186;28;20272;-63
2022/06/11 00:59:21;;;;;;;6.97;3.60;;;;;;;14.25;100.00;100666.66;5053664;28;20189;-65
2022/06/11 01:01:47;;;;;;;6.07;3.40;;;;;;;14.28;100.00;100661.28;5030829;28;20307;-62
2022/06/11 01:04:38;;;;;;;6.03;3.43;;;;;;;14.15;100.00;100661.22;5050204;28;20181;-63
2022/06/11 01:07:29;;;;;;;8.60;3.93;;;;;;;14.09;100.00;100660.75;5052668;28;20181;-62
2022/06/11 01:10:16;;;;;;;5.53;3.40;;;;;;;14.06;100.00;100664.34;5051416;28;20323;-62
2022/06/11 01:12:57;;;;;;;8.37;3.60;;;;;;;14.07;100.00;100657.44;5042373;28;20213;-62
2022/06/11 01:15:30;;;;;;;5.57;3.53;;;;;;;14.03;100.00;100665.38;5054909;28;20192;-62
2022/06/11 01:18:17;;;;;;;4.93;3.03;;;;;;;13.92;100.00;100660.00;5053040;28;20229;-62
2022/06/11 01:21:11;;;;;;;4.50;3.20;;;;;;;13.92;100.00;100661.75;5042860;28;20233;-63
2022/06/11 01:24:13;;;;;;;7.40;3.70;;;;;;;13.90;100.00;100661.03;5043522;28;20269;-62
2022/06/11 01:26:53;;;;;;;5.23;3.63;;;;;;;13.82;100.00;100664.91;5030303;28;20209;-62
2022/06/11 01:29:49;;;;;;;7.53;3.40;;;;;;;13.83;100.00;100663.13;5019009;28;20206;-61
2022/06/11 01:32:25;;;;;;;6.60;3.40;;;;;;;13.76;100.00;100667.84;5020577;28;20224;-62
2022/06/11 01:35:23;;;;;;;8.43;3.70;;;;;;;13.72;100.00;100669.78;5046849;28;20185;-62
2022/06/11 01:37:55;;;;;;;7.57;3.50;;;;;;;13.74;100.00;100661.09;5029951;28;20677;-61
2022/06/11 01:40:35;;;;;;;7.63;3.67;;;;;;;13.80;100.00;100664.16;5023173;28;20188;-62
2022/06/11 01:43:22;;;;;;;5.83;3.10;;;;;;;13.73;100.00;100655.09;5030573;28;20252;-62
2022/06/11 01:45:49;;;;;;;6.90;3.40;;;;;;;13.75;100.00;100657.59;5022140;28;20193;-63
2022/06/11 01:48:19;;;;;;;5.83;3.73;;;;;;;13.75;100.00;100655.84;5030191;28;20265;-61
2022/06/11 01:50:54;;;;;;;5.83;3.50;;;;;;;13.65;100.00;100652.13;5020445;28;20248;-62
2022/06/11 01:53:28;;;;;;;5.70;3.20;;;;;;;13.60;100.00;100649.81;5030382;28;20192;-61
2022/06/11 01:56:09;;;;;;;5.30;3.67;;;;;;;13.58;100.00;100645.66;5050071;28;20205;-62
2022/06/11 01:58:38;;;;;;;8.20;3.43;;;;;;;13.67;100.00;100645.94;5051474;28;20211;-62
2022/06/11 02:01:21;;;;;;;7.33;3.67;;;;;;;13.52;100.00;100639.94;5041812;28;20244;-61
2022/06/11 02:03:58;;;;;;;4.70;3.73;;;;;;;13.45;100.00;100642.97;5045288;28;20254;-62
2022/06/11 02:06:51;;;;;;;9.57;3.77;;;;;;;13.35;100.00;100646.03;5050776;28;20181;-61
2022/06/11 02:09:38;;;;;;;7.23;3.53;;;;;;;13.42;100.00;100654.31;5050420;28;20296;-61
2022/06/11 02:12:51;;;;;;;7.37;3.60;;;;;;;13.45;100.00;100663.63;5043688;28;20232;-62
2022/06/11 02:15:32;;;;;;;4.47;3.27;;;;;;;13.24;100.00;100643.22;5000874;28;20300;-62
2022/06/11 02:18:01;;;;;;;6.73;3.53;;;;;;;13.31;100.00;100652.31;4989676;28;20265;-63
2022/06/11 02:20:37;;;;;;;5.73;3.30;;;;;;;13.55;100.00;100657.00;4974101;28;20230;-62
2022/06/11 02:23:05;;;;;;;5.90;2.93;;;;;;;13.51;100.00;100653.75;4990496;28;20270;-64
2022/06/11 02:25:33;;;;;;;7.97;3.40;;;;;;;13.49;100.00;100662.53;4984223;28;20233;-61
2022/06/11 02:28:06;;;;;;;6.40;3.97;;;;;;;13.49;100.00;100653.00;5009404;28;20234;-62
2022/06/11 02:30:33;;;;;;;3.80;3.40;;;;;;;13.79;100.00;100654.75;4980466;28;20234;-61
2022/06/11 02:32:58;;;;;;;7.57;3.27;;;;;;;13.74;100.00;100648.16;4989595;28;20191;-61
2022/06/11 02:35:35;;;;;;;5.33;2.97;;;;;;;13.83;100.00;100663.97;5009912;28;20234;-62
2022/06/11 02:38:01;;;;;;;4.40;3.00;;;;;;;14.08;100.00;100659.06;5009202;28;20206;-62
2022/06/11 02:40:31;;;;;;;5.60;4.17;;;;;;;14.00;100.00;100651.78;4983370;28;20558;-61
2022/06/11 02:42:57;;;;;;;5.57;2.80;;;;;;;14.02;100.00;100655.94;5009803;28;20205;-62
2022/06/11 02:45:23;;;;;;;8.33;3.50;;;;;;;14.18;100.00;100652.44;4993535;28;20214;-64
2022/06/11 02:47:51;;;;;;;10.67;3.33;;;;;;;14.29;100.00;100659.53;4992405;28;20225;-60
2022/06/11 02:50:22;;;;;;;7.60;3.43;;;;;;;14.32;100.00;100659.34;4999723;28;20286;-61
2022/06/11 02:52:48;;;;;;;6.23;3.60;;;;;;;14.51;100.00;100661.63;5020647;28;20205;-62
2022/06/11 02:55:13;;;;;;;5.23;3.13;;;;;;;14.64;100.00;100659.94;5045879;28;20232;-59
2022/06/11 02:57:40;;;;;;;5.20;3.40;;;;;;;14.71;100.00;100663.03;5066207;28;20260;-58
2022/06/11 03:00:09;;;;;;;7.17;3.23;;;;;;;14.51;100.00;100662.47;5058592;28;20275;-60
2022/06/11 03:02:35;;;;;;;3.83;2.90;;;;;;;14.65;100.00;100661.63;5050859;28;20241;-59
2022/06/11 03:05:00;;;;;;;8.40;3.70;;;;;;;14.76;100.00;100663.56;5065963;28;20556;-58
2022/06/11 03:07:26;;;;;;;8.33;3.90;;;;;;;14.98;100.00;100657.00;5053408;28;20647;-58
2022/06/11 03:09:51;;;;;;;5.33;3.20;;;;;;;14.95;100.00;100658.03;5051234;28;20949;-59
2022/06/11 03:12:17;;;;;;;6.53;3.17;;;;;;;14.91;100.00;100658.31;5026277;28;20229;-59
2022/06/11 03:14:43;;;;;;;5.40;3.27;;;;;;;15.00;100.00;100662.91;5050424;28;20195;-59
2022/06/11 03:17:11;;;;;;;4.27;3.10;;;;;;;15.24;100.00;100667.44;5041403;28;20299;-59
2022/06/11 03:19:36;;;;;;;4.97;3.00;;;;;;;15.24;100.00;100672.63;5050860;28;20215;-59
2022/06/11 03:22:02;;;;;;;5.20;3.23;;;;;;;15.28;100.00;100667.16;5056142;28;20232;-59
2022/06/11 03:24:27;;;;;;;5.97;3.87;;;;;;;15.31;100.00;100666.94;5051059;28;20589;-63
2022/06/11 03:26:54;;;;;;;5.87;3.80;;;;;;;15.30;100.00;100661.84;5049058;28;20213;-62
2022/06/11 03:29:22;;;;;;;4.37;3.30;;;;;;;15.23;100.00;100670.97;5049251;28;20203;-64
2022/06/11 03:31:47;;;;;;;5.83;3.23;;;;;;;15.35;100.00;100672.75;5014087;28;20301;-63
2022/06/11 03:34:13;;;;;;;7.07;3.50;;;;;;;15.38;100.00;100666.53;5054626;28;20675;-62
2022/06/11 03:36:40;;;;;;;7.23;2.90;;;;;;;15.18;100.00;100671.25;5056956;28;20235;-63
2022/06/11 03:39:06;;;;;;;5.03;3.23;;;;;;;15.33;100.00;100665.06;5057502;28;20181;-63
2022/06/11 03:41:31;;;;;;;7.03;2.87;;;;;;;15.40;100.00;100678.47;5025019;28;20280;-63
2022/06/11 03:43:56;;;;;;;6.80;3.20;;;;;;;15.61;100.00;100677.97;5044655;28;20177;-64
2022/06/11 03:46:22;;;;;;;8.93;3.83;;;;;;;15.45;100.00;100671.19;5057234;28;20216;-62
2022/06/11 03:48:49;;;;;;;10.10;4.00;;;;;;;15.51;100.00;100675.16;5057529;28;20239;-62
2022/06/11 03:51:15;;;;;;;7.63;3.60;;;;;;;15.51;100.00;100674.34;5036005;28;20217;-63
2022/06/11 03:53:41;;;;;;;4.67;3.07;;;;;;;15.56;100.00;100672.28;5030221;28;20588;-62
2022/06/11 03:56:08;;;;;;;5.53;3.23;;;;;;;15.67;100.00;100682.75;5055553;28;20173;-62
2022/06/11 03:58:36;;;;;;;5.63;3.07;;;;;;;15.79;100.00;100678.53;5057226;28;20196;-62
2022/06/11 04:01:14;;;;;;;7.67;3.77;;;;;;;15.73;100.00;100686.72;5035224;28;20634;-62
2022/06/11 04:03:40;;;;;;;11.97;3.70;;;;;;;15.54;100.00;100676.72;5055154;28;20299;-63
2022/06/11 04:06:06;;;;;;;5.50;3.33;;;;;;;15.55;100.00;100680.97;5055369;28;20303;-63
2022/06/11 04:08:32;;;;;;;5.53;3.03;;;;;;;15.55;100.00;100680.97;5055537;28;20212;-63
2022/06/11 04:11:00;;;;;;;7.67;3.57;;;;;;;15.56;100.00;100673.09;5041256;28;20232;-63
2022/06/11 04:13:27;;;;;;;7.57;3.83;;;;;;;15.71;100.00;100670.41;5056849;28;20264;-62
2022/06/11 04:15:54;;;;;;;7.50;3.67;;;;;;;15.70;100.00;100679.13;5057407;28;20540;-63
2022/06/11 04:18:37;;;;;;;8.17;3.10;;;;;;;15.68;100.00;100688.75;5055366;28;20232;-62
2022/06/11 04:21:05;;;;;;;7.60;3.13;;;;;;;15.35;100.00;100674.53;5040286;28;20236;-64
2022/06/11 04:23:31;;;;;;;6.07;3.50;;;;;;;15.33;100.00;100687.56;5047648;28;20656;-62
2022/06/11 04:26:05;;;;;;;5.57;2.90;;;;;;;15.40;100.00;100694.00;5055467;28;20200;-65
2022/06/11 04:28:31;;;;;;;4.40;3.10;;;;;;;15.38;100.00;100685.53;5056015;28;20251;-63
2022/06/11 04:30:59;;;;;;;11.13;3.57;;;;;;;15.44;100.00;100684.28;5041450;28;20217;-63
2022/06/11 04:33:24;;;;;;;7.13;3.07;;;;;;;15.64;100.00;100701.94;5046807;28;20189;-63
2022/06/11 04:35:50;;;;;;;5.43;3.47;;;;;;;15.80;100.00;100691.38;5055404;28;20184;-62
2022/06/11 04:38:16;;;;;;;8.10;3.47;;;;;;;15.82;100.00;100699.09;5055069;28;20262;-62
2022/06/11 04:40:42;;;;;;;8.57;3.50;;;;;;;16.01;100.00;100703.03;5046527;28;20612;-63
2022/06/11 04:43:07;;;;;;;5.30;3.40;;;;;;;16.24;100.00;100701.47;5053811;28;20201;-64
2022/06/11 04:45:32;;;;;;;5.70;2.80;;;;;;;16.10;100.00;100705.00;5055396;28;20675;-65
2022/06/11 04:47:58;;;;;;;5.43;3.07;;;;;;;16.17;100.00;100693.25;5052859;28;20212;-64
2022/06/11 04:50:23;;;;;;;5.17;3.47;;;;;;;16.37;100.00;100698.84;5038135;28;20375;-63
2022/06/11 04:52:48;;;;;;;6.20;3.10;;;;;;;16.39;100.00;100689.19;5029736;28;20491;-63
2022/06/11 04:55:14;;;;;;;4.07;3.43;;;;;;;16.48;100.00;100698.09;5071243;28;20184;-63
2022/06/11 04:57:41;;;;;;;7.47;2.93;;;;;;;16.57;100.00;100695.69;5052595;28;20181;-64
2022/06/11 05:00:08;;;;;;;4.83;3.10;;;;;;;16.74;99.34;100699.66;5049031;28;20234;-63
2022/06/11 05:02:33;;;;;;;11.93;3.30;;;;;;;16.80;97.97;100695.00;5057825;28;20189;-63
2022/06/11 05:04:58;;;;;;;7.47;3.03;;;;;;;16.90;97.18;100701.19;5052113;28;20185;-64
2022/06/11 05:07:24;;;;;;;6.83;3.57;;;;;;;17.19;94.61;100700.88;5051129;28;20205;-65
2022/06/11 05:09:49;;;;;;;4.47;3.20;;;;;;;17.36;92.15;100707.44;5052102;28;20224;-65
2022/06/11 05:12:15;;;;;;;8.93;3.30;;;;;;;17.54;91.68;100707.88;5028700;28;20649;-63
2022/06/11 05:14:40;;;;;;;6.03;3.00;;;;;;;17.69;89.19;100717.13;5056553;28;20178;-63
2022/06/11 05:17:06;;;;;;;6.40;2.90;;;;;;;17.95;87.18;100716.13;5050664;28;20636;-64
2022/06/11 05:19:31;;;;;;;9.10;3.70;;;;;;;17.75;88.61;100714.06;5051351;28;20181;-65
2022/06/11 05:21:57;;;;;;;8.67;3.43;;;;;;;17.89;87.59;100717.41;5020916;28;20908;-62
2022/06/11 05:24:22;;;;;;;5.73;2.80;;;;;;;17.99;86.45;100720.97;5047373;28;20544;-66
2022/06/11 05:26:52;;;;;;;3.57;2.70;;;;;;;17.94;86.05;100720.50;5051846;28;20768;-66
2022/06/11 05:29:26;;;;;;;11.50;2.97;;;;;;;18.19;83.64;100719.44;5050127;28;20209;-62
2022/06/11 05:31:51;;;;;;;6.07;2.80;;;;;;;18.60;81.39;100718.97;5030750;28;20272;-62
2022/06/11 05:34:17;;;;;;;6.20;2.97;;;;;;;18.85;81.21;100721.28;5053391;28;20905;-61
2022/06/11 05:36:43;;;;;;;5.47;2.73;;;;;;;19.28;79.08;100713.59;5052840;28;20192;-63
2022/06/11 05:39:08;;;;;;;7.93;3.37;;;;;;;19.68;76.71;100718.97;5053336;28;20193;-62
2022/06/11 05:41:34;;;;;;;5.53;2.87;;;;;;;20.17;73.62;100721.03;5024961;28;20225;-63
2022/06/11 05:43:59;;;;;;;5.57;2.73;;;;;;;20.66;69.45;100725.59;5044857;28;20173;-62
2022/06/11 05:46:26;;;;;;;5.90;2.83;;;;;;;21.31;65.83;100723.34;5043857;28;20284;-61
2022/06/11 05:49:00;;;;;;;5.30;2.60;;;;;;;21.75;62.51;100723.69;5051622;28;20201;-62
2022/06/11 05:51:33;;;;;;;6.40;2.80;;;;;;;21.83;59.54;100716.94;5032928;28;20242;-62
2022/06/11 05:54:01;;;;;;;4.33;2.23;;;;;;;22.31;57.70;100722.97;5030519;28;20185;-63
2022/06/11 05:56:28;;;;;;;4.77;2.40;;;;;;;22.64;57.31;100726.81;5051193;28;20269;-61
2022/06/11 05:59:02;;;;;;;5.07;2.27;;;;;;;22.50;56.42;100722.06;5050877;28;20261;-61
2022/06/11 06:01:32;;;;;;;6.27;2.67;;;;;;;22.43;55.77;100726.25;5053225;28;20219;-61
2022/06/11 06:03:57;;;;;;;4.30;2.47;;;;;;;22.17;55.89;100721.66;5050857;28;20181;-61
2022/06/11 06:06:23;;;;;;;6.23;1.97;;;;;;;22.06;57.02;100720.84;5050905;28;20193;-62
2022/06/11 06:08:48;;;;;;;5.50;2.30;;;;;;;22.40;55.23;100722.09;5052418;28;20232;-62
2022/06/11 06:11:13;;;;;;;4.90;2.17;;;;;;;22.31;55.30;100722.97;5041869;28;20213;-61
2022/06/11 06:13:48;;;;;;;4.77;2.00;;;;;;;22.21;56.92;100718.56;5051771;28;20239;-62
2022/06/11 06:16:15;;;;;;;5.23;2.03;;;;;;;22.36;55.28;100721.56;5050377;28;20526;-63
2022/06/11 06:18:41;;;;;;;4.10;1.90;;;;;;;22.74;54.48;100732.00;5050960;28;20312;-62
2022/06/11 06:21:07;;;;;;;4.50;1.83;;;;;;;23.03;53.64;100736.19;5041736;28;20296;-61
2022/06/11 06:23:35;;;;;;;3.23;1.60;;;;;;;23.09;52.17;100725.09;5043370;28;20177;-62
2022/06/11 06:26:00;;;;;;;4.03;2.00;;;;;;;23.06;52.62;100735.91;5050537;28;20284;-63
2022/06/11 06:28:26;;;;;;;4.10;1.93;;;;;;;23.28;54.63;100729.41;5052007;28;20227;-61
2022/06/11 06:30:51;;;;;;;5.33;2.00;;;;;;;23.92;52.60;100742.34;5041692;28;20263;-60
2022/06/11 06:33:17;;;;;;;5.10;2.30;;;;;;;24.18;49.82;100738.88;5051418;28;20210;-61
2022/06/11 06:35:42;;;;;;;6.63;2.27;;;;;;;24.07;49.14;100739.97;5050792;28;20185;-61
2022/06/11 06:38:08;;;;;;;3.37;1.83;;;;;;;23.94;50.16;100735.16;5051753;28;20236;-61
2022/06/11 06:40:34;;;;;;;4.77;1.70;;;;;;;24.27;50.04;100739.72;5038996;28;20278;-61
2022/06/11 06:43:00;;;;;;;5.37;2.03;;;;;;;24.30;48.53;100740.25;5050987;28;20532;-63
2022/06/11 06:45:25;;;;;;;6.20;2.00;;;;;;;23.74;50.77;100746.78;5050542;28;20185;-72
2022/06/11 06:47:50;;;;;;;7.00;2.10;;;;;;;24.25;51.73;100744.31;5051401;28;20668;-62
2022/06/11 06:50:17;;;;;;;3.73;1.80;;;;;;;24.65;50.32;100751.56;5041260;28;20181;-62
2022/06/11 06:52:42;;;;;;;3.97;1.90;;;;;;;24.96;49.47;100750.16;5043753;28;20260;-61
2022/06/11 06:55:08;;;;;;;2.85;1.50;;;;;;;24.61;49.44;100752.84;5044305;28;20591;-65
2022/06/11 06:57:34;;;;;;;3.77;2.07;;;;;;;24.95;49.34;100759.03;5046405;28;20749;-62
2022/06/11 07:00:01;;;;;;;4.03;2.00;;;;;;;24.86;48.79;100754.72;5044724;28;20264;-63
2022/06/11 07:02:27;;;;;;;5.13;1.92;;;;;;;24.96;49.01;100761.47;5012918;28;20633;-61
2022/06/11 07:04:52;;;;;;;7.65;2.03;;;;;;;24.98;48.69;100758.69;5051494;28;20185;-62
2022/06/11 07:07:18;;;;;;;6.93;2.13;;;;;;;24.75;49.33;100758.50;5048839;28;20189;-61
2022/06/11 07:09:45;;;;;;;3.88;1.85;;;;;;;25.04;48.89;100750.13;5049846;28;20184;-61
2022/06/11 07:12:10;;;;;;;6.22;1.98;;;;;;;24.85;48.43;100750.47;5025297;28;20240;-61
2022/06/11 07:14:35;;;;;;;4.47;2.00;;;;;;;25.17;48.81;100748.84;5051028;28;20292;-62
2022/06/11 07:17:06;;;;;;;5.80;2.08;;;;;;;25.24;46.94;100753.31;5031616;28;20267;-61
2022/06/11 07:19:45;;;;;;;5.00;2.08;;;;;;;26.35;43.90;100753.63;5048091;28;20180;-62
2022/06/11 07:22:34;;;;;;;7.82;2.17;;;;;;;27.20;42.48;100754.63;5055999;28;20282;-63
2022/06/11 07:25:03;;;;;;;4.43;2.25;;;;;;;28.09;41.18;100757.63;5050406;28;20857;-54
2022/06/11 07:27:35;;;;;;;2.97;1.50;;;;;;;28.34;40.61;100766.06;5050207;28;20235;-55
2022/06/11 07:30:15;;;;;;;7.03;1.70;;;;;;;29.30;37.78;100757.13;5051052;28;20173;-65
2022/06/11 07:32:42;;;;;;;5.85;1.80;;;;;;;30.20;36.33;100759.94;4986016;28;20275;-65
2022/06/11 07:35:12;;;;;;;3.78;1.85;;;;;;;31.38;34.45;100760.59;5049455;28;20173;-61
2022/06/11 07:37:38;;;;;;;5.15;1.60;;;;;;;31.57;32.81;100766.94;5049118;28;20192;-61
2022/06/11 07:40:07;;;;;;;9.50;1.95;;;;;;;32.05;32.22;100763.16;5040010;28;20182;-62
2022/06/11 07:42:32;;;;;;;4.05;1.42;;;;;;;31.71;33.04;100759.78;5049330;28;20560;-61
2022/06/11 07:44:58;;;;;;;5.25;1.88;;;;;;;31.66;33.09;100760.41;5050502;28;20210;-62
2022/06/11 07:50:11;;;;;;;3.42;1.55;;;;;;;32.06;31.64;100770.09;5040897;28;20191;-66
2022/06/11 07:52:37;;;;;;;6.93;1.98;;;;;;;30.16;33.93;100758.69;5044036;28;20182;-61
2022/06/11 07:55:02;;;;;;;3.40;1.30;;;;;;;32.13;32.05;100760.25;5038809;28;20410;-62
2022/06/11 07:57:27;;;;;;;3.42;1.52;;;;;;;33.04;30.49;100762.06;5035489;28;20201;-63
2022/06/11 07:59:52;;;;;;;6.30;1.90;;;;;;;34.11;26.67;100761.84;5050049;28;20408;-67
2022/06/11 08:02:18;;;;;;;1.65;0.93;;;;;;;34.76;25.82;100759.56;5039594;28;20283;-69
2022/06/11 08:04:43;;;;;;;2.72;1.05;;;;;;;34.51;26.66;100759.72;5051030;28;20177;-59
2022/06/11 08:07:08;;;;;;;4.95;1.85;;;;;;;35.71;24.42;100767.66;5050429;28;20189;-61
2022/06/11 08:09:34;;;;;;;2.17;1.17;;;;;;;34.82;23.58;100755.97;5050592;28;20680;-61
2022/06/11 08:11:59;;;;;;;1.77;1.23;;;;;;;35.02;25.02;100755.69;5039416;28;20263;-60
2022/06/11 08:14:24;;;;;;;4.18;1.25;;;;;;;34.56;24.15;100757.19;5048454;28;20262;-60
2022/06/11 08:16:50;;;;;;;4.30;1.10;;;;;;;35.36;24.55;100763.13;5050175;28;20306;-60
2022/06/11 08:19:15;;;;;;;1.70;1.25;;;;;;;36.44;23.28;100754.66;5052494;28;20703;-63
2022/06/11 08:21:41;;;;;;;9.90;1.83;;;;;;;36.53;23.27;100759.63;5043616;28;20274;-64
2022/06/11 08:24:07;;;;;;;2.80;1.40;;;;;;;35.77;24.00;100763.22;5054378;28;20224;-62
2022/06/11 08:26:32;;;;;;;3.03;1.13;;;;;;;36.83;22.43;100759.34;5053835;28;20977;-59
2022/06/11 08:28:58;;;;;;;3.20;1.08;;;;;;;36.98;22.52;100761.50;5054248;28;20209;-59
2022/06/11 08:31:23;;;;;;;1.77;0.80;;;;;;;37.05;22.14;100762.13;5043603;28;20221;-58
2022/06/11 08:33:48;;;;;;;4.32;1.00;;;;;;;35.36;24.22;100765.81;5053725;28;20185;-71
2022/06/11 08:36:14;;;;;;;3.15;1.30;;;;;;;33.18;26.25;100754.75;5053337;28;20185;-69
2022/06/11 08:38:39;;;;;;;2.33;1.05;;;;;;;34.56;25.07;100760.66;5054222;28;20194;-71
2022/06/11 08:41:12;;;;;;;3.05;1.30;;;;;;;34.41;24.63;100752.25;5043194;28;20233;-75
2022/06/11 08:43:42;;;;;;;2.42;1.30;;;;;;;36.08;22.47;100756.66;5053047;28;20181;-74
2022/06/11 08:46:07;;;;;;;1.98;1.02;;;;;;;37.15;22.12;100758.78;5051777;28;20420;-69
2022/06/11 08:48:46;;;;;;;2.57;1.10;;;;;;;35.90;23.04;100762.19;5054096;28;20267;-68
2022/06/11 08:51:44;;;;;;;8.32;1.23;;;;;;;37.38;21.97;100755.13;5042417;28;20475;-69
2022/06/11 08:54:20;;;;;;;3.05;1.13;;;;;;;37.40;21.20;100753.00;5014328;28;20191;-68
2022/06/11 08:57:23;;;;;;;3.97;1.13;;;;;;;39.03;19.79;100753.38;5053685;28;20636;-69
2022/06/11 09:00:18;;;;;;;3.97;1.27;;;;;;;38.26;21.40;100751.63;5053769;28;20621;-68
2022/06/11 09:02:53;;;;;;;2.67;1.30;;;;;;;37.71;19.96;100745.34;5044741;28;20295;-69
2022/06/11 09:05:36;;;;;;;2.45;1.10;;;;;;;36.31;20.85;100736.22;5061564;28;20254;-68
2022/06/11 09:08:20;;;;;;;1.77;1.00;;;;;;;36.98;21.35;100737.38;5038650;28;20247;-68
2022/06/11 09:10:54;;;;;;;4.95;1.17;;;;;;;36.29;21.20;100732.94;5038498;28;20232;-68
2022/06/11 09:13:47;;;;;;;3.42;0.98;;;;;;;35.35;22.26;100735.59;5042675;28;20180;-68
2022/06/11 09:16:33;;;;;;;2.47;1.20;;;;;;;36.22;23.37;100730.44;5053257;28;20219;-69
2022/06/11 09:19:23;;;;;;;3.92;1.23;;;;;;;35.45;22.86;100728.84;5053667;28;20279;-68
2022/06/11 09:22:22;;;;;;;3.13;1.30;;;;;;;36.25;22.72;100727.25;5031012;28;20684;-68
2022/06/11 09:25:11;;;;;;;2.55;1.30;;;;;;;36.71;21.51;100735.31;5051910;28;20677;-69
2022/06/11 09:28:05;;;;;;;2.45;1.02;;;;;;;35.44;23.11;100728.06;5052451;28;20209;-69
2022/06/11 09:30:40;;;;;;;2.22;1.08;;;;;;;37.31;21.46;100731.13;5031295;28;20307;-69
2022/06/11 09:33:20;;;;;;;1.77;0.98;;;;;;;37.61;20.05;100740.69;5052635;28;20173;-69
2022/06/11 09:35:56;;;;;;;2.83;1.17;;;;;;;37.94;19.71;100736.25;5053121;28;20512;-68
2022/06/11 09:38:35;;;;;;;1.55;1.00;;;;;;;38.00;19.56;100736.31;5051256;28;20230;-68
2022/06/11 09:41:20;;;;;;;2.90;1.10;;;;;;;37.85;20.21;100732.38;5042709;28;20235;-69
2022/06/11 09:44:14;;;;;;;2.10;1.10;;;;;;;38.63;20.34;100736.66;5052430;28;20192;-68
2022/06/11 09:46:52;;;;;;;5.40;0.95;;;;;;;36.55;21.27;100730.75;5052363;28;20200;-68
2022/06/11 09:49:39;;;;;;;3.42;1.10;;;;;;;36.56;22.10;100725.13;5051060;28;20237;-68
2022/06/11 09:52:16;;;;;;;1.58;0.90;;;;;;;36.98;21.60;100735.47;5022674;28;20228;-68
2022/06/11 09:54:58;;;;;;;1.90;0.93;;;;;;;35.81;21.57;100735.78;5041753;28;20176;-68
2022/06/11 09:57:54;;;;;;;2.10;1.10;;;;;;;35.63;23.36;100725.22;5052255;28;20181;-68
2022/06/11 10:00:24;;;;;;;3.20;0.90;;;;;;;36.81;21.16;100719.38;5040965;28;20273;-68
2022/06/11 10:03:37;;;;;;;2.65;0.90;;;;;;;38.17;21.02;100736.19;5037929;28;20186;-69
2022/06/11 10:05:47;;;;;;;3.00;1.23;;;;;;;38.76;20.01;100723.88;5046394;28;20211;-68
2022/06/11 10:08:38;;;;;;;3.22;0.98;;;;;;;35.89;21.71;100720.41;5051128;28;20197;-70
2022/06/11 10:11:11;;;;;;;3.38;1.65;;;;;;;35.05;23.12;100725.00;5035970;28;20726;-69
2022/06/11 10:13:42;;;;;;;3.13;0.98;;;;;;;36.67;21.96;100716.22;5051433;28;20188;-69
2022/06/11 10:16:19;;;;;;;1.85;0.80;;;;;;;37.74;20.59;100720.69;5051871;28;20617;-68
2022/06/11 10:18:47;;;;;;;2.03;0.80;;;;;;;38.96;19.24;100731.28;5052152;28;20233;-68
2022/06/11 10:21:15;;;;;;;1.30;0.77;;;;;;;37.91;20.56;100723.34;5038700;28;20322;-69
2022/06/11 10:24:03;;;;;;;2.47;1.33;;;;;;;37.13;19.99;100726.06;5041167;28;20185;-69
2022/06/11 10:26:37;;;;;;;3.17;1.15;;;;;;;37.33;20.22;100720.16;5051576;28;20300;-67
2022/06/11 10:29:13;;;;;;;1.42;0.80;;;;;;;38.31;20.75;100718.66;5050801;28;20292;-69
2022/06/11 10:32:11;;;;;;;2.85;1.13;;;;;;;40.20;17.11;100721.88;5041294;28;20680;-69
2022/06/11 10:34:44;;;;;;;5.22;1.33;;;;;;;37.61;19.58;100716.53;5044015;28;20648;-69
2022/06/11 10:37:21;;;;;;;2.60;1.02;;;;;;;35.75;21.56;100717.16;5050163;28;20181;-69
2022/06/11 10:39:53;;;;;;;3.70;0.90;;;;;;;34.42;23.75;100706.63;5051749;28;20378;-69
2022/06/11 10:42:40;;;;;;;2.72;1.20;;;;;;;34.04;24.00;100706.94;5024440;28;20225;-68
2022/06/11 10:45:12;;;;;;;1.80;0.85;;;;;;;33.05;25.12;100705.88;5043477;28;20593;-69
2022/06/11 10:47:42;;;;;;;2.65;1.15;;;;;;;32.34;27.43;100707.78;5046582;28;20268;-69
2022/06/11 10:50:13;;;;;;;2.83;1.23;;;;;;;31.25;27.35;100710.13;5029716;28;20668;-69
2022/06/11 10:53:03;;;;;;;2.53;0.73;;;;;;;30.39;27.94;100705.31;5047557;28;20641;-69
2022/06/11 10:55:39;;;;;;;3.22;0.90;;;;;;;29.13;29.30;100693.78;5051327;28;20638;-68
2022/06/11 10:58:44;;;;;;;2.08;0.80;;;;;;;27.90;31.34;100685.75;5051255;28;20189;-69
2022/06/11 11:01:17;;;;;;;1.45;0.75;;;;;;;28.67;32.17;100684.44;5006575;28;20652;-68
2022/06/11 11:04:17;;;;;;;2.65;0.90;;;;;;;28.93;32.66;100682.22;5044307;28;20668;-68
2022/06/11 11:06:42;;;;;;;2.75;0.95;;;;;;;29.90;29.90;100683.28;5050511;28;20227;-69
2022/06/11 11:09:12;;;;;;;2.75;0.80;;;;;;;29.64;30.84;100686.59;5046244;28;20213;-69
2022/06/11 11:11:45;;;;;;;2.85;0.93;;;;;;;29.43;30.85;100687.50;5040447;28;20229;-69
2022/06/11 11:14:18;;;;;;;2.47;1.30;;;;;;;29.90;31.16;100683.28;5047800;28;20178;-68
2022/06/11 11:16:48;;;;;;;2.13;1.30;;;;;;;30.39;30.32;100688.56;5039832;28;20229;-67
2022/06/11 11:19:19;;;;;;;2.22;1.10;;;;;;;30.34;29.64;100681.22;5051084;28;20319;-70
2022/06/11 11:21:53;;;;;;;3.58;1.15;;;;;;;30.72;29.06;100679.88;5039870;28;20375;-69
2022/06/11 11:24:31;;;;;;;2.40;0.98;;;;;;;30.57;29.52;100680.06;5048181;28;20189;-69
2022/06/11 11:27:04;;;;;;;2.20;0.77;;;;;;;29.86;30.24;100678.56;5050615;28;20197;-69
2022/06/11 11:29:36;;;;;;;6.05;1.27;;;;;;;29.14;32.39;100674.22;5049814;28;20215;-69
2022/06/11 11:32:06;;;;;;;1.50;0.88;;;;;;;28.72;32.72;100681.22;5003732;28;20411;-70
2022/06/11 11:34:41;;;;;;;5.57;1.00;;;;;;;28.33;33.37;100677.97;5049434;28;20273;-71
2022/06/11 11:37:12;;;;;;;2.30;1.23;;;;;;;28.40;32.64;100679.84;5050322;28;20181;-69
2022/06/11 11:39:38;;;;;;;1.67;0.73;;;;;;;28.34;33.48;100674.31;5051081;28;20667;-69
2022/06/11 11:42:06;;;;;;;1.40;0.80;;;;;;;28.52;32.56;100673.06;5039471;28;20229;-69
2022/06/11 11:44:50;;;;;;;2.22;0.98;;;;;;;28.39;32.74;100668.44;5047716;28;20253;-69
2022/06/11 11:47:46;;;;;;;1.02;0.70;;;;;;;28.30;33.49;100666.94;5040612;28;20354;-69